createdAt,value
2023-04-28T00:03:07.807Z,18.30
2023-04-28T00:13:09.886Z,18.63
2023-04-28T00:23:12.873Z,17.73
2023-04-28T00:33:16.798Z,16.98
2023-04-28T00:43:21.790Z,18.92
2023-04-28T00:53:34.147Z,18.38
2023-04-28T01:03:39.813Z,17.67
2023-04-28T01:13:41.894Z,17.00
2023-04-28T01:23:46.880Z,15.35
2023-04-28T01:33:48.758Z,15.63
2023-04-28T01:43:52.544Z,14.80
2023-04-28T01:53:54.533Z,15.38
2023-04-28T02:03:56.644Z,13.48
2023-04-28T02:13:59.884Z,14.20
2023-04-28T02:24:01.801Z,13.90
2023-04-28T02:34:03.786Z,14.75
2023-04-28T02:44:06.802Z,13.45
2023-04-28T02:54:09.800Z,13.05
2023-04-28T03:04:11.889Z,11.98
2023-04-28T03:14:14.113Z,13.05
2023-04-28T03:24:16.775Z,13.73
2023-04-28T03:34:19.903Z,13.88
2023-04-28T03:44:21.942Z,14.30
2023-04-28T03:54:23.896Z,16.50
2023-04-28T04:04:32.004Z,15.40
2023-04-28T04:14:34.267Z,14.95
2023-04-28T04:24:40.010Z,16.00
2023-04-28T04:34:46.027Z,13.85
2023-04-28T04:44:48.156Z,14.02
2023-04-28T04:54:50.128Z,12.88
2023-04-28T05:04:52.243Z,12.77
2023-04-28T05:14:56.308Z,12.85
2023-04-28T05:24:58.334Z,13.13
2023-04-28T05:35:01.493Z,13.15
2023-04-28T05:45:03.513Z,12.05
2023-04-28T05:55:05.938Z,11.10
2023-04-28T06:05:08.503Z,12.63
2023-04-28T06:15:11.293Z,11.75
2023-04-28T06:25:13.341Z,11.05
2023-04-28T06:35:16.691Z,9.55
2023-04-28T06:45:18.647Z,11.80
2023-04-28T06:55:20.753Z,12.05
2023-04-28T07:05:23.760Z,5.15
2023-04-28T07:15:25.839Z,8.70
2023-04-28T07:25:27.742Z,7.35
2023-04-28T07:35:29.797Z,8.55
2023-04-28T07:45:33.249Z,3.78
2023-04-28T07:55:35.448Z,4.53
2023-04-28T08:05:39.248Z,3.10
2023-04-28T08:15:41.287Z,3.60
2023-04-28T08:25:43.357Z,2.85
2023-04-28T08:35:45.984Z,3.33
2023-04-28T08:45:48.045Z,3.55
2023-04-28T08:55:59.003Z,3.05
2023-04-28T09:06:04.066Z,3.67
2023-04-28T09:16:06.882Z,3.28
2023-04-28T09:26:09.002Z,3.00
2023-04-28T09:36:11.115Z,3.35
2023-04-28T09:46:29.699Z,3.03
2023-04-28T09:56:35.157Z,2.67
2023-04-28T10:06:38.962Z,1.60
2023-04-28T10:16:41.313Z,1.67
2023-04-28T10:27:05.962Z,1.38
2023-04-28T10:37:09.066Z,1.13
2023-04-28T10:47:11.485Z,1.55
2023-04-28T10:57:19.308Z,1.70
2023-04-28T11:07:21.276Z,1.48
2023-04-28T11:17:46.216Z,1.25
2023-04-28T11:27:48.176Z,1.27
2023-04-28T11:38:04.404Z,1.80
2023-04-28T11:48:22.681Z,1.80
2023-04-28T11:58:25.517Z,1.50
2023-04-28T12:08:30.800Z,2.10
2023-04-28T12:18:36.784Z,1.73
2023-04-28T12:28:40.575Z,1.95
2023-04-28T12:38:49.236Z,2.38
2023-04-28T12:48:51.406Z,2.15
2023-04-28T12:59:18.409Z,2.35
2023-04-28T13:09:21.168Z,1.40
2023-04-28T13:19:23.355Z,1.27
2023-04-28T13:29:40.573Z,3.80
2023-04-28T13:39:42.787Z,0.88
2023-04-28T13:49:45.174Z,1.15
2023-04-28T13:59:47.232Z,2.95
2023-04-28T14:09:50.025Z,3.55
2023-04-28T14:19:52.286Z,3.30
2023-04-28T14:29:54.262Z,5.03
2023-04-28T14:39:56.313Z,4.03
2023-04-28T14:50:20.293Z,5.93
2023-04-28T15:00:22.914Z,5.00
2023-04-28T15:10:32.350Z,5.20
2023-04-28T15:20:42.540Z,4.75
2023-04-28T15:30:44.630Z,6.15
2023-04-28T15:40:49.631Z,5.38
2023-04-28T15:50:53.697Z,5.07
2023-04-28T16:00:55.633Z,4.55
2023-04-28T16:10:57.579Z,4.95
2023-04-28T16:20:59.568Z,5.22
2023-04-28T16:31:01.451Z,4.80
2023-04-28T16:41:03.352Z,4.97
2023-04-28T16:51:32.812Z,5.50
2023-04-28T17:01:34.936Z,5.63
2023-04-28T17:11:39.849Z,6.32
2023-04-28T17:21:42.106Z,6.57
2023-04-28T17:31:44.071Z,7.65
2023-04-28T17:41:47.074Z,5.90
2023-04-28T17:51:49.016Z,9.98
2023-04-28T18:01:56.453Z,5.68
2023-04-28T18:12:04.803Z,13.93
2023-04-28T18:22:06.876Z,8.30
2023-04-28T18:32:12.745Z,17.20
2023-04-28T18:42:16.770Z,13.20
2023-04-28T18:52:19.463Z,13.50
2023-04-28T19:02:30.231Z,13.55
2023-04-28T19:12:38.950Z,12.68
2023-04-28T19:22:44.868Z,8.98
2023-04-28T19:32:47.052Z,10.35
2023-04-28T19:42:49.786Z,13.05
2023-04-28T19:53:05.981Z,13.43
2023-04-28T20:03:15.491Z,11.68
2023-04-28T20:13:25.697Z,10.93
2023-04-28T20:23:29.612Z,12.63
2023-04-28T20:33:32.761Z,12.93
2023-04-28T20:43:34.932Z,12.93
2023-04-28T20:53:39.920Z,13.05
2023-04-28T21:03:42.106Z,13.50
2023-04-28T21:13:44.770Z,13.52
2023-04-28T21:23:46.731Z,13.05
2023-04-28T21:33:48.762Z,13.45
2023-04-28T21:43:50.744Z,12.88
2023-04-28T21:53:53.772Z,12.80
2023-04-28T22:03:56.392Z,12.95
2023-04-28T22:13:59.437Z,13.52
2023-04-28T22:24:02.318Z,14.23
2023-04-28T22:34:06.076Z,14.27
2023-04-28T22:44:07.994Z,14.88
2023-04-28T22:54:10.060Z,14.40
2023-04-28T23:04:12.124Z,16.13
2023-04-28T23:14:14.155Z,13.68
2023-04-28T23:24:22.998Z,12.65
2023-04-28T23:34:25.582Z,12.23
2023-04-28T23:44:27.519Z,13.15
2023-04-28T23:54:30.981Z,13.00
